sensor_id;sensor_type;location;lat;lon;timestamp;temperature;humidity
11246;DHT22;59870;50.106;8.580;2023-06-19T00:02:15;28.00;49.70
11246;DHT22;59870;50.106;8.580;2023-06-19T00:04:42;28.20;50.00
11246;DHT22;59870;50.106;8.580;2023-06-19T00:07:09;28.50;50.30
11246;DHT22;59870;50.106;8.580;2023-06-19T00:09:37;27.90;50.00
11246;DHT22;59870;50.106;8.580;2023-06-19T00:12:05;27.90;50.10
11246;DHT22;59870;50.106;8.580;2023-06-19T00:14:32;28.00;50.20
11246;DHT22;59870;50.106;8.580;2023-06-19T00:17:00;28.00;50.10
11246;DHT22;59870;50.106;8.580;2023-06-19T00:19:28;28.00;50.30
11246;DHT22;59870;50.106;8.580;2023-06-19T00:21:55;28.00;50.40
11246;DHT22;59870;50.106;8.580;2023-06-19T00:24:24;28.60;51.30
11246;DHT22;59870;50.106;8.580;2023-06-19T00:26:51;28.50;51.60
11246;DHT22;59870;50.106;8.580;2023-06-19T00:29:19;28.50;51.80
11246;DHT22;59870;50.106;8.580;2023-06-19T00:31:46;28.20;51.60
11246;DHT22;59870;50.106;8.580;2023-06-19T00:34:15;27.80;51.40
11246;DHT22;59870;50.106;8.580;2023-06-19T00:36:42;27.90;51.60
11246;DHT22;59870;50.106;8.580;2023-06-19T00:39:10;27.90;51.70
11246;DHT22;59870;50.106;8.580;2023-06-19T00:41:38;27.90;51.70
11246;DHT22;59870;50.106;8.580;2023-06-19T00:44:06;27.90;51.70
11246;DHT22;59870;50.106;8.580;2023-06-19T00:46:37;28.60;52.10
11246;DHT22;59870;50.106;8.580;2023-06-19T00:49:05;28.10;52.70
11246;DHT22;59870;50.106;8.580;2023-06-19T00:51:33;28.10;52.20
11246;DHT22;59870;50.106;8.580;2023-06-19T00:54:01;28.00;52.50
11246;DHT22;59870;50.106;8.580;2023-06-19T00:56:28;28.50;53.10
11246;DHT22;59870;50.106;8.580;2023-06-19T00:58:58;27.80;52.90
11246;DHT22;59870;50.106;8.580;2023-06-19T01:01:26;27.80;53.30
11246;DHT22;59870;50.106;8.580;2023-06-19T01:03:56;28.20;54.10
11246;DHT22;59870;50.106;8.580;2023-06-19T01:06:32;27.50;54.30
11246;DHT22;59870;50.106;8.580;2023-06-19T01:09:08;28.10;55.50
11246;DHT22;59870;50.106;8.580;2023-06-19T01:11:43;27.80;55.90
11246;DHT22;59870;50.106;8.580;2023-06-19T01:14:18;27.40;55.60
11246;DHT22;59870;50.106;8.580;2023-06-19T01:16:48;27.50;55.50
11246;DHT22;59870;50.106;8.580;2023-06-19T01:19:18;27.40;55.30
11246;DHT22;59870;50.106;8.580;2023-06-19T01:21:48;27.40;55.30
11246;DHT22;59870;50.106;8.580;2023-06-19T01:24:17;28.00;55.80
11246;DHT22;59870;50.106;8.580;2023-06-19T01:26:45;27.40;56.30
11246;DHT22;59870;50.106;8.580;2023-06-19T01:29:14;27.40;55.40
11246;DHT22;59870;50.106;8.580;2023-06-19T01:31:49;27.60;55.40
11246;DHT22;59870;50.106;8.580;2023-06-19T01:34:18;27.60;55.80
11246;DHT22;59870;50.106;8.580;2023-06-19T01:36:48;27.50;55.80
11246;DHT22;59870;50.106;8.580;2023-06-19T01:39:18;26.90;55.40
11246;DHT22;59870;50.106;8.580;2023-06-19T01:41:47;26.90;55.40
11246;DHT22;59870;50.106;8.580;2023-06-19T01:44:15;26.90;55.80
11246;DHT22;59870;50.106;8.580;2023-06-19T01:46:50;27.00;55.80
11246;DHT22;59870;50.106;8.580;2023-06-19T01:49:18;26.90;55.60
11246;DHT22;59870;50.106;8.580;2023-06-19T01:51:46;26.90;55.30
11246;DHT22;59870;50.106;8.580;2023-06-19T01:54:13;27.50;56.20
11246;DHT22;59870;50.106;8.580;2023-06-19T01:56:41;26.90;56.10
11246;DHT22;59870;50.106;8.580;2023-06-19T01:59:09;27.50;56.20
11246;DHT22;59870;50.106;8.580;2023-06-19T02:01:36;27.00;55.60
11246;DHT22;59870;50.106;8.580;2023-06-19T02:04:04;27.00;55.50
11246;DHT22;59870;50.106;8.580;2023-06-19T02:06:31;27.00;56.00
11246;DHT22;59870;50.106;8.580;2023-06-19T02:08:59;27.00;56.00
11246;DHT22;59870;50.106;8.580;2023-06-19T02:11:27;27.10;55.70
11246;DHT22;59870;50.106;8.580;2023-06-19T02:13:55;27.00;56.30
11246;DHT22;59870;50.106;8.580;2023-06-19T02:16:22;27.60;56.50
11246;DHT22;59870;50.106;8.580;2023-06-19T02:18:50;27.00;56.40
11246;DHT22;59870;50.106;8.580;2023-06-19T02:21:18;27.60;57.00
11246;DHT22;59870;50.106;8.580;2023-06-19T02:23:45;27.30;56.80
11246;DHT22;59870;50.106;8.580;2023-06-19T02:26:13;27.00;56.90
11246;DHT22;59870;50.106;8.580;2023-06-19T02:28:40;27.00;57.30
11246;DHT22;59870;50.106;8.580;2023-06-19T02:31:08;27.50;57.20
11246;DHT22;59870;50.106;8.580;2023-06-19T02:33:37;26.90;56.80
11246;DHT22;59870;50.106;8.580;2023-06-19T02:36:05;26.90;56.50
11246;DHT22;59870;50.106;8.580;2023-06-19T02:38:32;26.80;56.60
11246;DHT22;59870;50.106;8.580;2023-06-19T02:41:00;27.30;57.60
11246;DHT22;59870;50.106;8.580;2023-06-19T02:43:29;26.70;57.20
11246;DHT22;59870;50.106;8.580;2023-06-19T02:45:57;27.10;57.40
11246;DHT22;59870;50.106;8.580;2023-06-19T02:48:24;26.60;57.50
11246;DHT22;59870;50.106;8.580;2023-06-19T02:50:53;26.60;57.70
11246;DHT22;59870;50.106;8.580;2023-06-19T02:53:21;26.50;57.50
11246;DHT22;59870;50.106;8.580;2023-06-19T02:55:48;27.10;57.70
11246;DHT22;59870;50.106;8.580;2023-06-19T02:58:15;26.60;57.80
11246;DHT22;59870;50.106;8.580;2023-06-19T03:00:44;26.40;57.80
11246;DHT22;59870;50.106;8.580;2023-06-19T03:03:12;26.40;58.00
11246;DHT22;59870;50.106;8.580;2023-06-19T03:05:39;26.40;58.20
11246;DHT22;59870;50.106;8.580;2023-06-19T03:08:07;26.40;58.80
11246;DHT22;59870;50.106;8.580;2023-06-19T03:10:34;26.30;58.40
11246;DHT22;59870;50.106;8.580;2023-06-19T03:13:02;26.40;58.30
11246;DHT22;59870;50.106;8.580;2023-06-19T03:15:29;26.20;58.90
11246;DHT22;59870;50.106;8.580;2023-06-19T03:17:57;26.80;59.70
11246;DHT22;59870;50.106;8.580;2023-06-19T03:20:25;26.50;58.90
11246;DHT22;59870;50.106;8.580;2023-06-19T03:22:57;26.00;58.30
11246;DHT22;59870;50.106;8.580;2023-06-19T03:25:25;26.40;58.10
11246;DHT22;59870;50.106;8.580;2023-06-19T03:27:54;26.50;58.30
11246;DHT22;59870;50.106;8.580;2023-06-19T03:30:21;26.30;58.20
11246;DHT22;59870;50.106;8.580;2023-06-19T03:32:51;25.90;57.90
11246;DHT22;59870;50.106;8.580;2023-06-19T03:35:36;25.90;58.40
11246;DHT22;59870;50.106;8.580;2023-06-19T03:38:03;26.50;59.10
11246;DHT22;59870;50.106;8.580;2023-06-19T03:40:31;26.50;59.10
11246;DHT22;59870;50.106;8.580;2023-06-19T03:43:05;25.90;59.00
11246;DHT22;59870;50.106;8.580;2023-06-19T03:45:33;26.50;59.60
11246;DHT22;59870;50.106;8.580;2023-06-19T03:48:00;26.60;59.50
11246;DHT22;59870;50.106;8.580;2023-06-19T03:50:28;26.60;59.30
11246;DHT22;59870;50.106;8.580;2023-06-19T03:52:55;26.10;59.20
11246;DHT22;59870;50.106;8.580;2023-06-19T03:55:23;26.40;59.40
11246;DHT22;59870;50.106;8.580;2023-06-19T03:57:50;26.10;58.90
11246;DHT22;59870;50.106;8.580;2023-06-19T04:00:18;26.10;59.20
11246;DHT22;59870;50.106;8.580;2023-06-19T04:02:49;26.10;59.00
11246;DHT22;59870;50.106;8.580;2023-06-19T04:05:16;26.60;58.90
11246;DHT22;59870;50.106;8.580;2023-06-19T04:07:44;26.40;59.00
11246;DHT22;59870;50.106;8.580;2023-06-19T04:10:14;26.10;59.00
11246;DHT22;59870;50.106;8.580;2023-06-19T04:12:41;26.10;59.00
11246;DHT22;59870;50.106;8.580;2023-06-19T04:15:09;26.10;59.70
11246;DHT22;59870;50.106;8.580;2023-06-19T04:17:37;26.10;61.00
11246;DHT22;59870;50.106;8.580;2023-06-19T04:20:05;26.10;61.10
11246;DHT22;59870;50.106;8.580;2023-06-19T04:22:40;26.10;61.20
11246;DHT22;59870;50.106;8.580;2023-06-19T04:25:09;26.10;61.30
11246;DHT22;59870;50.106;8.580;2023-06-19T04:27:37;26.10;62.20
11246;DHT22;59870;50.106;8.580;2023-06-19T04:30:05;26.40;61.10
11246;DHT22;59870;50.106;8.580;2023-06-19T04:32:36;26.10;61.10
11246;DHT22;59870;50.106;8.580;2023-06-19T04:35:04;26.30;61.90
11246;DHT22;59870;50.106;8.580;2023-06-19T04:37:31;26.10;62.00
11246;DHT22;59870;50.106;8.580;2023-06-19T04:39:58;26.10;62.60
11246;DHT22;59870;50.106;8.580;2023-06-19T04:42:27;26.40;63.30
11246;DHT22;59870;50.106;8.580;2023-06-19T04:44:54;26.10;63.00
11246;DHT22;59870;50.106;8.580;2023-06-19T04:47:23;26.60;64.00
11246;DHT22;59870;50.106;8.580;2023-06-19T04:50:00;26.10;63.40
11246;DHT22;59870;50.106;8.580;2023-06-19T04:52:27;26.10;63.40
11246;DHT22;59870;50.106;8.580;2023-06-19T04:54:56;26.10;63.60
11246;DHT22;59870;50.106;8.580;2023-06-19T04:57:24;26.10;63.90
11246;DHT22;59870;50.106;8.580;2023-06-19T04:59:51;26.20;64.10
11246;DHT22;59870;50.106;8.580;2023-06-19T05:02:19;26.20;63.30
11246;DHT22;59870;50.106;8.580;2023-06-19T05:04:46;26.20;63.70
11246;DHT22;59870;50.106;8.580;2023-06-19T05:07:14;26.30;63.80
11246;DHT22;59870;50.106;8.580;2023-06-19T05:09:42;26.70;64.20
11246;DHT22;59870;50.106;8.580;2023-06-19T05:12:11;26.40;64.40
11246;DHT22;59870;50.106;8.580;2023-06-19T05:14:38;26.50;63.70
11246;DHT22;59870;50.106;8.580;2023-06-19T05:17:06;26.50;64.00
11246;DHT22;59870;50.106;8.580;2023-06-19T05:19:33;26.60;64.10
11246;DHT22;59870;50.106;8.580;2023-06-19T05:22:01;26.90;64.40
11246;DHT22;59870;50.106;8.580;2023-06-19T05:24:29;26.70;63.10
11246;DHT22;59870;50.106;8.580;2023-06-19T05:26:56;26.80;63.40
11246;DHT22;59870;50.106;8.580;2023-06-19T05:29:23;26.90;62.60
11246;DHT22;59870;50.106;8.580;2023-06-19T05:31:51;27.00;62.20
11246;DHT22;59870;50.106;8.580;2023-06-19T05:34:19;27.50;63.20
11246;DHT22;59870;50.106;8.580;2023-06-19T05:36:47;27.30;62.70
11246;DHT22;59870;50.106;8.580;2023-06-19T05:39:14;27.40;62.00
11246;DHT22;59870;50.106;8.580;2023-06-19T05:41:42;27.50;61.70
11246;DHT22;59870;50.106;8.580;2023-06-19T05:44:10;28.20;62.10
11246;DHT22;59870;50.106;8.580;2023-06-19T05:46:41;28.40;61.90
11246;DHT22;59870;50.106;8.580;2023-06-19T05:49:09;28.10;60.80
11246;DHT22;59870;50.106;8.580;2023-06-19T05:51:36;28.30;60.60
11246;DHT22;59870;50.106;8.580;2023-06-19T05:54:04;28.50;59.40
11246;DHT22;59870;50.106;8.580;2023-06-19T05:56:32;28.70;59.00
11246;DHT22;59870;50.106;8.580;2023-06-19T05:59:00;29.30;59.10
11246;DHT22;59870;50.106;8.580;2023-06-19T06:01:31;29.00;58.20
11246;DHT22;59870;50.106;8.580;2023-06-19T06:03:59;29.10;58.10
11246;DHT22;59870;50.106;8.580;2023-06-19T06:06:28;29.80;57.70
11246;DHT22;59870;50.106;8.580;2023-06-19T06:08:56;29.80;57.00
11246;DHT22;59870;50.106;8.580;2023-06-19T06:11:23;29.40;57.00
11246;DHT22;59870;50.106;8.580;2023-06-19T06:13:50;29.90;57.00
11246;DHT22;59870;50.106;8.580;2023-06-19T06:16:18;29.50;56.50
11246;DHT22;59870;50.106;8.580;2023-06-19T06:18:45;29.60;56.30
11246;DHT22;59870;50.106;8.580;2023-06-19T06:21:13;29.60;56.70
11246;DHT22;59870;50.106;8.580;2023-06-19T06:23:41;30.10;56.80
11246;DHT22;59870;50.106;8.580;2023-06-19T06:26:08;30.40;56.80
11246;DHT22;59870;50.106;8.580;2023-06-19T06:28:37;30.20;56.70
11246;DHT22;59870;50.106;8.580;2023-06-19T06:31:06;30.50;56.70
11246;DHT22;59870;50.106;8.580;2023-06-19T06:33:33;30.70;57.30
11246;DHT22;59870;50.106;8.580;2023-06-19T06:36:01;30.30;56.40
11246;DHT22;59870;50.106;8.580;2023-06-19T06:38:29;30.40;55.80
11246;DHT22;59870;50.106;8.580;2023-06-19T06:40:56;30.50;55.90
11246;DHT22;59870;50.106;8.580;2023-06-19T06:43:24;31.10;55.70
11246;DHT22;59870;50.106;8.580;2023-06-19T06:45:52;30.60;54.90
11246;DHT22;59870;50.106;8.580;2023-06-19T06:48:20;30.70;55.60
11246;DHT22;59870;50.106;8.580;2023-06-19T06:50:48;30.80;55.50
11246;DHT22;59870;50.106;8.580;2023-06-19T06:53:15;31.50;55.30
11246;DHT22;59870;50.106;8.580;2023-06-19T06:55:43;31.10;54.70
11246;DHT22;59870;50.106;8.580;2023-06-19T06:58:14;31.10;54.10
11246;DHT22;59870;50.106;8.580;2023-06-19T07:00:42;31.30;53.90
11246;DHT22;59870;50.106;8.580;2023-06-19T07:03:10;31.50;53.50
11246;DHT22;59870;50.106;8.580;2023-06-19T07:05:38;31.70;53.20
11246;DHT22;59870;50.106;8.580;2023-06-19T07:08:05;31.70;53.10
11246;DHT22;59870;50.106;8.580;2023-06-19T07:10:32;31.80;53.10
11246;DHT22;59870;50.106;8.580;2023-06-19T07:13:00;32.00;53.40
11246;DHT22;59870;50.106;8.580;2023-06-19T07:15:27;32.00;52.60
11246;DHT22;59870;50.106;8.580;2023-06-19T07:17:56;32.20;52.10
11246;DHT22;59870;50.106;8.580;2023-06-19T07:20:23;32.30;52.40
11246;DHT22;59870;50.106;8.580;2023-06-19T07:22:52;32.60;51.30
11246;DHT22;59870;50.106;8.580;2023-06-19T07:25:20;33.10;51.40
11246;DHT22;59870;50.106;8.580;2023-06-19T07:27:51;32.60;50.60
11246;DHT22;59870;50.106;8.580;2023-06-19T07:30:19;32.80;50.30
11246;DHT22;59870;50.106;8.580;2023-06-19T07:32:47;32.80;50.10
11246;DHT22;59870;50.106;8.580;2023-06-19T07:35:14;32.90;49.70
11246;DHT22;59870;50.106;8.580;2023-06-19T07:37:42;33.00;50.20
11246;DHT22;59870;50.106;8.580;2023-06-19T07:40:10;33.10;49.60
11246;DHT22;59870;50.106;8.580;2023-06-19T07:42:37;33.10;50.00
11246;DHT22;59870;50.106;8.580;2023-06-19T07:45:05;33.20;49.80
11246;DHT22;59870;50.106;8.580;2023-06-19T07:47:33;33.20;49.10
11246;DHT22;59870;50.106;8.580;2023-06-19T07:50:00;33.70;49.50
11246;DHT22;59870;50.106;8.580;2023-06-19T07:52:28;33.30;49.20
11246;DHT22;59870;50.106;8.580;2023-06-19T07:54:56;33.30;49.10
11246;DHT22;59870;50.106;8.580;2023-06-19T07:57:25;33.20;49.20
11246;DHT22;59870;50.106;8.580;2023-06-19T07:59:54;33.20;49.30
11246;DHT22;59870;50.106;8.580;2023-06-19T08:02:22;33.10;49.20
11246;DHT22;59870;50.106;8.580;2023-06-19T08:04:49;33.10;48.90
11246;DHT22;59870;50.106;8.580;2023-06-19T08:07:17;33.60;49.70
11246;DHT22;59870;50.106;8.580;2023-06-19T08:09:44;33.10;49.70
11246;DHT22;59870;50.106;8.580;2023-06-19T08:12:18;33.10;48.90
11246;DHT22;59870;50.106;8.580;2023-06-19T08:14:45;33.10;49.50
11246;DHT22;59870;50.106;8.580;2023-06-19T08:17:12;33.40;48.90
11246;DHT22;59870;50.106;8.580;2023-06-19T08:19:40;33.70;49.20
11246;DHT22;59870;50.106;8.580;2023-06-19T08:22:09;33.30;49.30
11246;DHT22;59870;50.106;8.580;2023-06-19T08:24:37;33.30;49.40
11246;DHT22;59870;50.106;8.580;2023-06-19T08:27:09;33.50;49.10
11246;DHT22;59870;50.106;8.580;2023-06-19T08:29:37;33.50;49.90
11246;DHT22;59870;50.106;8.580;2023-06-19T08:32:04;33.60;49.00
11246;DHT22;59870;50.106;8.580;2023-06-19T08:34:32;33.70;49.40
11246;DHT22;59870;50.106;8.580;2023-06-19T08:37:00;34.20;48.30
11246;DHT22;59870;50.106;8.580;2023-06-19T08:39:27;34.00;48.40
11246;DHT22;59870;50.106;8.580;2023-06-19T08:41:55;34.20;48.40
11246;DHT22;59870;50.106;8.580;2023-06-19T08:44:22;34.30;46.40
11246;DHT22;59870;50.106;8.580;2023-06-19T08:46:50;34.40;47.70
11246;DHT22;59870;50.106;8.580;2023-06-19T08:49:17;34.70;48.10
11246;DHT22;59870;50.106;8.580;2023-06-19T08:51:45;34.70;47.30
11246;DHT22;59870;50.106;8.580;2023-06-19T08:54:13;34.80;47.50
11246;DHT22;59870;50.106;8.580;2023-06-19T08:56:42;34.90;47.30
11246;DHT22;59870;50.106;8.580;2023-06-19T08:59:13;35.10;46.50
11246;DHT22;59870;50.106;8.580;2023-06-19T09:01:50;35.30;46.50
11246;DHT22;59870;50.106;8.580;2023-06-19T09:04:27;35.40;46.40
11246;DHT22;59870;50.106;8.580;2023-06-19T09:06:59;35.50;46.10
11246;DHT22;59870;50.106;8.580;2023-06-19T09:09:43;35.70;45.40
11246;DHT22;59870;50.106;8.580;2023-06-19T09:12:13;35.70;45.60
11246;DHT22;59870;50.106;8.580;2023-06-19T09:14:45;35.90;44.80
11246;DHT22;59870;50.106;8.580;2023-06-19T09:17:18;36.20;45.10
11246;DHT22;59870;50.106;8.580;2023-06-19T09:19:51;36.10;44.10
11246;DHT22;59870;50.106;8.580;2023-06-19T09:22:21;36.30;43.40
11246;DHT22;59870;50.106;8.580;2023-06-19T09:24:49;36.50;44.70
11246;DHT22;59870;50.106;8.580;2023-06-19T09:27:19;36.70;43.70
11246;DHT22;59870;50.106;8.580;2023-06-19T09:29:48;36.90;42.00
11246;DHT22;59870;50.106;8.580;2023-06-19T09:32:22;37.20;42.20
11246;DHT22;59870;50.106;8.580;2023-06-19T09:34:53;37.20;42.30
11246;DHT22;59870;50.106;8.580;2023-06-19T09:37:29;37.40;42.10
11246;DHT22;59870;50.106;8.580;2023-06-19T09:40:00;37.80;41.90
11246;DHT22;59870;50.106;8.580;2023-06-19T09:42:33;37.70;42.40
11246;DHT22;59870;50.106;8.580;2023-06-19T09:45:03;37.70;41.00
11246;DHT22;59870;50.106;8.580;2023-06-19T09:47:43;37.70;41.00
11246;DHT22;59870;50.106;8.580;2023-06-19T09:50:16;37.80;42.20
11246;DHT22;59870;50.106;8.580;2023-06-19T09:52:49;37.80;40.50
11246;DHT22;59870;50.106;8.580;2023-06-19T09:55:19;37.80;40.80
11246;DHT22;59870;50.106;8.580;2023-06-19T09:57:47;37.70;41.60
11246;DHT22;59870;50.106;8.580;2023-06-19T10:00:16;37.60;41.60
11246;DHT22;59870;50.106;8.580;2023-06-19T10:02:50;37.50;40.50
11246;DHT22;59870;50.106;8.580;2023-06-19T10:05:28;37.50;41.50
11246;DHT22;59870;50.106;8.580;2023-06-19T10:07:56;37.40;41.40
11246;DHT22;59870;50.106;8.580;2023-06-19T10:10:27;37.30;41.70
11246;DHT22;59870;50.106;8.580;2023-06-19T10:13:12;37.20;42.50
11246;DHT22;59870;50.106;8.580;2023-06-19T10:15:41;37.00;41.80
11246;DHT22;59870;50.106;8.580;2023-06-19T10:18:17;37.00;40.90
11246;DHT22;59870;50.106;8.580;2023-06-19T10:20:46;36.80;41.70
11246;DHT22;59870;50.106;8.580;2023-06-19T10:25:47;36.60;41.60
11246;DHT22;59870;50.106;8.580;2023-06-19T10:28:23;36.50;42.90
11246;DHT22;59870;50.106;8.580;2023-06-19T10:30:58;36.50;43.20
11246;DHT22;59870;50.106;8.580;2023-06-19T10:33:28;36.40;42.80
11246;DHT22;59870;50.106;8.580;2023-06-19T10:35:56;36.20;43.10
11246;DHT22;59870;50.106;8.580;2023-06-19T10:38:24;36.20;44.20
11246;DHT22;59870;50.106;8.580;2023-06-19T10:40:52;36.20;43.60
11246;DHT22;59870;50.106;8.580;2023-06-19T10:43:24;36.20;43.30
11246;DHT22;59870;50.106;8.580;2023-06-19T10:45:52;36.10;44.00
11246;DHT22;59870;50.106;8.580;2023-06-19T10:48:23;36.30;43.40
11246;DHT22;59870;50.106;8.580;2023-06-19T10:50:51;36.00;43.10
11246;DHT22;59870;50.106;8.580;2023-06-19T10:53:31;36.00;42.90
11246;DHT22;59870;50.106;8.580;2023-06-19T10:56:01;35.90;43.70
11246;DHT22;59870;50.106;8.580;2023-06-19T10:58:29;35.80;42.60
11246;DHT22;59870;50.106;8.580;2023-06-19T11:00:56;36.30;43.70
11246;DHT22;59870;50.106;8.580;2023-06-19T11:03:24;35.60;43.30
11246;DHT22;59870;50.106;8.580;2023-06-19T11:05:52;35.50;44.30
11246;DHT22;59870;50.106;8.580;2023-06-19T11:08:21;35.40;44.00
11246;DHT22;59870;50.106;8.580;2023-06-19T11:10:50;35.50;43.50
11246;DHT22;59870;50.106;8.580;2023-06-19T11:13:19;35.50;43.40
11246;DHT22;59870;50.106;8.580;2023-06-19T11:15:50;35.40;44.20
11246;DHT22;59870;50.106;8.580;2023-06-19T11:18:18;35.30;43.60
11246;DHT22;59870;50.106;8.580;2023-06-19T11:20:50;35.30;44.10
11246;DHT22;59870;50.106;8.580;2023-06-19T11:23:26;35.30;43.40
11246;DHT22;59870;50.106;8.580;2023-06-19T11:25:54;35.30;44.50
11246;DHT22;59870;50.106;8.580;2023-06-19T11:28:22;35.30;44.00
11246;DHT22;59870;50.106;8.580;2023-06-19T11:31:00;35.30;44.10
11246;DHT22;59870;50.106;8.580;2023-06-19T11:33:31;35.30;44.40
11246;DHT22;59870;50.106;8.580;2023-06-19T11:36:01;35.30;44.30
11246;DHT22;59870;50.106;8.580;2023-06-19T11:38:29;35.30;44.90
11246;DHT22;59870;50.106;8.580;2023-06-19T11:40:57;35.20;43.70
11246;DHT22;59870;50.106;8.580;2023-06-19T11:43:25;35.40;43.80
11246;DHT22;59870;50.106;8.580;2023-06-19T11:45:54;35.20;43.40
11246;DHT22;59870;50.106;8.580;2023-06-19T11:48:27;35.20;43.70
11246;DHT22;59870;50.106;8.580;2023-06-19T11:50:55;35.30;43.40
11246;DHT22;59870;50.106;8.580;2023-06-19T11:53:23;35.70;44.20
11246;DHT22;59870;50.106;8.580;2023-06-19T11:55:52;35.80;43.80
11246;DHT22;59870;50.106;8.580;2023-06-19T11:58:19;35.30;42.70
11246;DHT22;59870;50.106;8.580;2023-06-19T12:00:49;35.50;44.70
11246;DHT22;59870;50.106;8.580;2023-06-19T12:03:17;35.30;43.90
11246;DHT22;59870;50.106;8.580;2023-06-19T12:05:45;35.30;43.00
11246;DHT22;59870;50.106;8.580;2023-06-19T12:08:13;35.30;44.90
11246;DHT22;59870;50.106;8.580;2023-06-19T12:10:41;35.30;44.20
11246;DHT22;59870;50.106;8.580;2023-06-19T12:13:09;35.20;43.80
11246;DHT22;59870;50.106;8.580;2023-06-19T12:15:36;35.30;44.70
11246;DHT22;59870;50.106;8.580;2023-06-19T12:18:04;35.30;43.30
11246;DHT22;59870;50.106;8.580;2023-06-19T12:20:34;35.20;43.50
11246;DHT22;59870;50.106;8.580;2023-06-19T12:23:02;35.00;44.70
11246;DHT22;59870;50.106;8.580;2023-06-19T12:25:30;35.40;45.70
11246;DHT22;59870;50.106;8.580;2023-06-19T12:27:57;34.80;44.50
11246;DHT22;59870;50.106;8.580;2023-06-19T12:30:25;34.80;45.50
11246;DHT22;59870;50.106;8.580;2023-06-19T12:32:52;35.00;45.20
11246;DHT22;59870;50.106;8.580;2023-06-19T12:35:20;34.70;44.50
11246;DHT22;59870;50.106;8.580;2023-06-19T12:37:49;34.70;45.20
11246;DHT22;59870;50.106;8.580;2023-06-19T12:40:17;34.70;45.30
11246;DHT22;59870;50.106;8.580;2023-06-19T12:42:45;34.60;45.80
11246;DHT22;59870;50.106;8.580;2023-06-19T12:45:13;34.60;44.60
11246;DHT22;59870;50.106;8.580;2023-06-19T12:47:40;34.70;44.70
11246;DHT22;59870;50.106;8.580;2023-06-19T12:50:08;34.60;44.80
11246;DHT22;59870;50.106;8.580;2023-06-19T12:52:36;34.60;44.10
11246;DHT22;59870;50.106;8.580;2023-06-19T12:55:04;34.60;45.00
11246;DHT22;59870;50.106;8.580;2023-06-19T12:57:31;34.60;44.80
11246;DHT22;59870;50.106;8.580;2023-06-19T12:59:59;34.90;45.20
11246;DHT22;59870;50.106;8.580;2023-06-19T13:02:26;34.60;44.00
11246;DHT22;59870;50.106;8.580;2023-06-19T13:04:54;34.50;42.90
11246;DHT22;59870;50.106;8.580;2023-06-19T13:07:21;34.40;42.90
11246;DHT22;59870;50.106;8.580;2023-06-19T13:09:49;34.40;44.40
11246;DHT22;59870;50.106;8.580;2023-06-19T13:12:16;34.50;44.20
11246;DHT22;59870;50.106;8.580;2023-06-19T13:14:44;34.30;45.50
11246;DHT22;59870;50.106;8.580;2023-06-19T13:17:11;34.30;45.40
11246;DHT22;59870;50.106;8.580;2023-06-19T13:19:39;34.70;44.70
11246;DHT22;59870;50.106;8.580;2023-06-19T13:22:06;34.40;44.10
11246;DHT22;59870;50.106;8.580;2023-06-19T13:24:34;34.30;43.60
11246;DHT22;59870;50.106;8.580;2023-06-19T13:27:02;34.30;44.70
11246;DHT22;59870;50.106;8.580;2023-06-19T13:29:29;34.30;45.00
11246;DHT22;59870;50.106;8.580;2023-06-19T13:31:57;34.30;45.30
11246;DHT22;59870;50.106;8.580;2023-06-19T13:34:24;34.30;45.60
11246;DHT22;59870;50.106;8.580;2023-06-19T13:36:51;34.40;44.50
11246;DHT22;59870;50.106;8.580;2023-06-19T13:39:19;34.40;43.90
11246;DHT22;59870;50.106;8.580;2023-06-19T13:41:47;34.40;44.20
11246;DHT22;59870;50.106;8.580;2023-06-19T13:44:15;35.00;45.10
11246;DHT22;59870;50.106;8.580;2023-06-19T13:46:42;34.40;43.70
11246;DHT22;59870;50.106;8.580;2023-06-19T13:49:10;34.40;43.40
11246;DHT22;59870;50.106;8.580;2023-06-19T13:51:38;35.00;43.90
11246;DHT22;59870;50.106;8.580;2023-06-19T13:54:06;34.40;43.90
11246;DHT22;59870;50.106;8.580;2023-06-19T13:56:33;34.60;44.90
11246;DHT22;59870;50.106;8.580;2023-06-19T13:59:00;34.60;43.30
11246;DHT22;59870;50.106;8.580;2023-06-19T14:01:29;34.70;42.70
11246;DHT22;59870;50.106;8.580;2023-06-19T14:03:57;34.60;42.50
11246;DHT22;59870;50.106;8.580;2023-06-19T14:06:25;34.70;43.20
11246;DHT22;59870;50.106;8.580;2023-06-19T14:08:54;34.70;42.70
11246;DHT22;59870;50.106;8.580;2023-06-19T14:11:23;34.70;43.00
11246;DHT22;59870;50.106;8.580;2023-06-19T14:13:51;35.10;43.10
11246;DHT22;59870;50.106;8.580;2023-06-19T14:16:19;34.70;41.40
11246;DHT22;59870;50.106;8.580;2023-06-19T14:18:46;34.70;42.00
11246;DHT22;59870;50.106;8.580;2023-06-19T14:21:14;35.20;41.90
11246;DHT22;59870;50.106;8.580;2023-06-19T14:23:41;34.70;40.80
11246;DHT22;59870;50.106;8.580;2023-06-19T14:26:10;34.70;42.40
11246;DHT22;59870;50.106;8.580;2023-06-19T14:28:38;34.60;42.00
11246;DHT22;59870;50.106;8.580;2023-06-19T14:31:06;34.60;41.60
11246;DHT22;59870;50.106;8.580;2023-06-19T14:33:34;34.50;41.90
11246;DHT22;59870;50.106;8.580;2023-06-19T14:36:04;34.60;41.60
11246;DHT22;59870;50.106;8.580;2023-06-19T14:38:32;34.60;41.70
11246;DHT22;59870;50.106;8.580;2023-06-19T14:41:27;34.50;39.30
11246;DHT22;59870;50.106;8.580;2023-06-19T14:44:33;34.50;40.70
11246;DHT22;59870;50.106;8.580;2023-06-19T14:47:01;34.60;41.40
11246;DHT22;59870;50.106;8.580;2023-06-19T14:49:29;34.50;40.20
11246;DHT22;59870;50.106;8.580;2023-06-19T14:51:56;34.60;41.60
11246;DHT22;59870;50.106;8.580;2023-06-19T14:54:24;34.60;40.00
11246;DHT22;59870;50.106;8.580;2023-06-19T14:56:51;34.60;39.90
11246;DHT22;59870;50.106;8.580;2023-06-19T14:59:19;35.00;41.40
11246;DHT22;59870;50.106;8.580;2023-06-19T15:01:47;34.60;39.30
11246;DHT22;59870;50.106;8.580;2023-06-19T15:04:14;34.70;39.40
11246;DHT22;59870;50.106;8.580;2023-06-19T15:06:42;34.60;40.40
11246;DHT22;59870;50.106;8.580;2023-06-19T15:09:10;34.90;39.10
11246;DHT22;59870;50.106;8.580;2023-06-19T15:11:37;34.70;39.80
11246;DHT22;59870;50.106;8.580;2023-06-19T15:14:05;34.70;39.50
11246;DHT22;59870;50.106;8.580;2023-06-19T15:16:32;34.60;40.50
11246;DHT22;59870;50.106;8.580;2023-06-19T15:19:04;34.70;41.10
11246;DHT22;59870;50.106;8.580;2023-06-19T15:21:31;34.60;40.30
11246;DHT22;59870;50.106;8.580;2023-06-19T15:23:58;34.60;40.00
11246;DHT22;59870;50.106;8.580;2023-06-19T15:26:26;34.80;40.00
11246;DHT22;59870;50.106;8.580;2023-06-19T15:28:53;34.60;40.50
11246;DHT22;59870;50.106;8.580;2023-06-19T15:31:22;34.60;39.00
11246;DHT22;59870;50.106;8.580;2023-06-19T15:33:50;34.60;37.80
11246;DHT22;59870;50.106;8.580;2023-06-19T15:36:18;34.60;37.60
11246;DHT22;59870;50.106;8.580;2023-06-19T15:38:45;34.60;37.60
11246;DHT22;59870;50.106;8.580;2023-06-19T15:41:13;34.60;38.20
11246;DHT22;59870;50.106;8.580;2023-06-19T15:43:41;34.80;39.10